Time;durP1;ratioP1;P1;durP2;ratioP2;P2;SDS_P1;SDS_P2;PMS_P1;PMS_P2;Temp;Humidity;BMP_temperature;BMP_pressure;BME280_temperature;BME280_humidity;BME280_pressure;Samples;Min_cycle;Max_cycle;Signal;HPM_P1;HPM_P2
2022/03/20 00:02:23;;;;;;;28.10;19.17;;;;;;;;;;4954060;29;20055;-62
2022/03/20 00:04:50;;;;;;;26.80;18.05;;;;;;;;;;4953911;28;20055;-62
2022/03/20 00:07:16;;;;;;;29.75;17.63;;;;;;;;;;4953943;29;20451;-62
2022/03/20 00:09:44;;;;;;;27.77;18.70;;;;;;;;;;4954006;28;20055;-62
2022/03/20 00:12:10;;;;;;;26.55;18.15;;;;;;;;;;4953927;28;20134;-62
2022/03/20 00:14:37;;;;;;;27.73;18.40;;;;;;;;;;4953907;28;20051;-62
2022/03/20 00:17:03;;;;;;;25.02;17.25;;;;;;;;;;4953804;28;20055;-62
2022/03/20 00:19:31;;;;;;;21.77;16.02;;;;;;;;;;4953414;28;20055;-62
2022/03/20 00:21:58;;;;;;;25.08;16.98;;;;;;;;;;4953462;28;20047;-63
2022/03/20 00:24:24;;;;;;;27.17;18.42;;;;;;;;;;4936789;29;20047;-62
2022/03/20 00:26:56;;;;;;;26.88;17.90;;;;;;;;;;4953920;29;20098;-62
2022/03/20 00:29:27;;;;;;;28.30;18.00;;;;;;;;;;4953369;28;20043;-63
2022/03/20 00:31:53;;;;;;;25.63;18.67;;;;;;;;;;4953598;28;20122;-63
2022/03/20 00:34:20;;;;;;;23.50;16.92;;;;;;;;;;4953734;29;20067;-63
2022/03/20 00:36:47;;;;;;;26.45;17.63;;;;;;;;;;4953466;28;20473;-62
2022/03/20 00:39:13;;;;;;;24.17;16.98;;;;;;;;;;4953599;28;20090;-62
2022/03/20 00:41:40;;;;;;;24.25;17.15;;;;;;;;;;4953610;28;20126;-63
2022/03/20 00:44:06;;;;;;;25.80;17.42;;;;;;;;;;4953672;29;20098;-63
2022/03/20 00:46:33;;;;;;;26.33;17.63;;;;;;;;;;4954539;28;20490;-62
2022/03/20 00:49:00;;;;;;;25.55;16.70;;;;;;;;;;4957230;28;20055;-63
2022/03/20 00:51:26;;;;;;;22.58;15.80;;;;;;;;;;4956963;28;20577;-63
2022/03/20 00:53:53;;;;;;;24.83;17.13;;;;;;;;;;4957417;28;20059;-63
2022/03/20 00:56:20;;;;;;;23.92;17.02;;;;;;;;;;4957203;29;20098;-63
2022/03/20 00:58:46;;;;;;;24.23;16.92;;;;;;;;;;4957039;28;20497;-64
2022/03/20 01:01:14;;;;;;;27.05;16.33;;;;;;;;;;4956772;29;20051;-64
2022/03/20 01:03:41;;;;;;;22.65;15.65;;;;;;;;;;4956912;28;20058;-63
2022/03/20 01:06:08;;;;;;;29.10;17.25;;;;;;;;;;4956877;28;20564;-63
2022/03/20 01:08:36;;;;;;;25.75;17.25;;;;;;;;;;4957038;28;20098;-63
2022/03/20 01:11:06;;;;;;;24.50;17.27;;;;;;;;;;4956941;28;20094;-63
2022/03/20 01:13:34;;;;;;;24.77;16.17;;;;;;;;;;4956955;28;20059;-63
2022/03/20 01:16:00;;;;;;;26.23;18.23;;;;;;;;;;4956700;28;20110;-63
2022/03/20 01:18:27;;;;;;;26.83;18.13;;;;;;;;;;4956618;28;20113;-62
2022/03/20 01:20:54;;;;;;;23.35;16.70;;;;;;;;;;4956669;29;20110;-63
2022/03/20 01:23:21;;;;;;;24.60;16.67;;;;;;;;;;4956682;28;20079;-62
2022/03/20 01:25:49;;;;;;;26.20;17.00;;;;;;;;;;4956587;29;20059;-62
2022/03/20 01:28:16;;;;;;;27.17;17.98;;;;;;;;;;4956414;28;20047;-63
2022/03/20 01:30:43;;;;;;;25.13;16.35;;;;;;;;;;4956172;28;20094;-63
2022/03/20 01:33:09;;;;;;;24.80;16.83;;;;;;;;;;4956681;28;20051;-63
2022/03/20 01:35:36;;;;;;;26.38;17.25;;;;;;;;;;4956563;29;20055;-63
2022/03/20 01:38:04;;;;;;;24.17;16.60;;;;;;;;;;4956410;28;20054;-63
2022/03/20 01:40:31;;;;;;;26.80;17.48;;;;;;;;;;4956089;28;20098;-63
2022/03/20 01:42:58;;;;;;;24.80;16.38;;;;;;;;;;4956246;28;20051;-63
2022/03/20 01:45:25;;;;;;;25.05;15.52;;;;;;;;;;4956314;28;20067;-63
2022/03/20 01:47:52;;;;;;;28.10;15.60;;;;;;;;;;4956371;28;20051;-63
2022/03/20 01:50:21;;;;;;;23.23;16.20;;;;;;;;;;4956217;28;20043;-63
2022/03/20 01:52:50;;;;;;;21.83;14.98;;;;;;;;;;4956054;28;20078;-63
2022/03/20 01:55:18;;;;;;;20.73;14.55;;;;;;;;;;4956191;28;20047;-63
2022/03/20 01:57:45;;;;;;;19.45;13.63;;;;;;;;;;4955350;28;20086;-63
2022/03/20 02:00:17;;;;;;;20.08;13.77;;;;;;;;;;4955787;28;20490;-63
2022/03/20 02:02:43;;;;;;;25.90;13.85;;;;;;;;;;4956012;28;20462;-64
2022/03/20 02:05:11;;;;;;;23.60;13.75;;;;;;;;;;4956067;28;20062;-64
2022/03/20 02:07:40;;;;;;;23.80;14.68;;;;;;;;;;4955924;28;20551;-63
2022/03/20 02:10:09;;;;;;;21.88;13.65;;;;;;;;;;4955595;28;20094;-63
2022/03/20 02:12:36;;;;;;;22.23;14.13;;;;;;;;;;4955688;28;20138;-62
2022/03/20 02:15:04;;;;;;;20.42;13.15;;;;;;;;;;4955931;28;20180;-62
2022/03/20 02:17:31;;;;;;;22.58;14.98;;;;;;;;;;4955628;28;20588;-63
2022/03/20 02:19:58;;;;;;;21.17;14.55;;;;;;;;;;4955524;28;20043;-63
2022/03/20 02:22:25;;;;;;;18.70;13.13;;;;;;;;;;4955873;28;20553;-62
2022/03/20 02:24:52;;;;;;;22.42;15.23;;;;;;;;;;4955474;28;20399;-62
2022/03/20 02:27:23;;;;;;;19.95;13.55;;;;;;;;;;4955452;28;20106;-62
2022/03/20 02:29:53;;;;;;;21.55;14.18;;;;;;;;;;4955348;28;20126;-62
2022/03/20 02:32:23;;;;;;;22.02;14.50;;;;;;;;;;4955446;28;20047;-62
2022/03/20 02:34:50;;;;;;;24.10;15.00;;;;;;;;;;4955487;28;20055;-62
2022/03/20 02:37:18;;;;;;;24.90;15.23;;;;;;;;;;4955722;28;20109;-63
2022/03/20 02:39:45;;;;;;;22.75;14.85;;;;;;;;;;4954957;28;20052;-63
2022/03/20 02:42:13;;;;;;;22.77;14.98;;;;;;;;;;4953984;29;20071;-62
2022/03/20 02:45:03;;;;;;;21.95;15.60;;;;;;;;;;4955338;28;20051;-62
2022/03/20 02:47:31;;;;;;;23.33;14.93;;;;;;;;;;4955134;28;20047;-63
2022/03/20 02:49:59;;;;;;;21.83;15.20;;;;;;;;;;4953553;28;20395;-62
2022/03/20 02:52:30;;;;;;;23.48;14.55;;;;;;;;;;4954904;29;20498;-62
2022/03/20 02:55:03;;;;;;;22.00;14.48;;;;;;;;;;4955274;28;20191;-63
2022/03/20 02:57:31;;;;;;;23.00;15.23;;;;;;;;;;4955146;28;20417;-62
2022/03/20 03:00:04;;;;;;;26.17;16.25;;;;;;;;;;4954797;28;20047;-63
2022/03/20 03:02:35;;;;;;;22.65;14.00;;;;;;;;;;4954726;28;20113;-63
2022/03/20 03:05:02;;;;;;;20.50;13.95;;;;;;;;;;4954108;29;20051;-62
2022/03/20 03:07:30;;;;;;;23.92;14.68;;;;;;;;;;4954822;28;20470;-62
2022/03/20 03:12:43;;;;;;;23.48;14.93;;;;;;;;;;4954758;29;20047;-63
2022/03/20 03:15:19;;;;;;;21.85;14.00;;;;;;;;;;4954961;28;20107;-62
2022/03/20 03:17:49;;;;;;;22.60;14.32;;;;;;;;;;4954754;28;20058;-61
2022/03/20 03:20:19;;;;;;;22.52;15.18;;;;;;;;;;4954638;28;20363;-63
2022/03/20 03:22:46;;;;;;;24.85;14.60;;;;;;;;;;4954469;28;20075;-63
2022/03/20 03:25:13;;;;;;;21.67;13.98;;;;;;;;;;4954385;29;20102;-62
2022/03/20 03:27:39;;;;;;;23.33;15.20;;;;;;;;;;4953387;29;20055;-63
2022/03/20 03:30:06;;;;;;;24.52;15.30;;;;;;;;;;4954170;28;20043;-63
2022/03/20 03:32:33;;;;;;;21.15;14.80;;;;;;;;;;4954317;29;20110;-63
2022/03/20 03:37:45;;;;;;;20.52;14.25;;;;;;;;;;4953056;28;20134;-63
2022/03/20 03:40:11;;;;;;;21.35;15.10;;;;;;;;;;4954203;28;20043;-63
2022/03/20 03:42:38;;;;;;;25.88;16.60;;;;;;;;;;4954327;28;20051;-64
2022/03/20 03:45:05;;;;;;;23.70;14.57;;;;;;;;;;4954267;28;20422;-63
2022/03/20 03:47:32;;;;;;;26.63;15.77;;;;;;;;;;4954170;28;20047;-63
2022/03/20 03:49:59;;;;;;;27.10;15.32;;;;;;;;;;4953863;28;20099;-63
2022/03/20 03:52:26;;;;;;;22.08;14.65;;;;;;;;;;4953812;29;20090;-63
2022/03/20 03:54:52;;;;;;;24.40;15.70;;;;;;;;;;4954248;28;20121;-63
2022/03/20 03:57:19;;;;;;;23.27;14.98;;;;;;;;;;4954018;29;20050;-63
2022/03/20 03:59:47;;;;;;;22.83;14.88;;;;;;;;;;4953759;28;20122;-63
2022/03/20 04:02:14;;;;;;;26.52;16.05;;;;;;;;;;4953921;28;20051;-64
2022/03/20 04:04:41;;;;;;;25.48;15.32;;;;;;;;;;4953952;28;20078;-63
2022/03/20 04:07:08;;;;;;;22.42;15.82;;;;;;;;;;4953758;28;20433;-63
2022/03/20 04:09:35;;;;;;;21.80;15.90;;;;;;;;;;4953692;28;20051;-63
2022/03/20 04:12:04;;;;;;;24.65;15.23;;;;;;;;;;4953923;28;20465;-63
2022/03/20 04:14:32;;;;;;;24.67;15.82;;;;;;;;;;4953629;28;20051;-63
2022/03/20 04:16:59;;;;;;;26.55;17.13;;;;;;;;;;4954042;28;20055;-64
2022/03/20 04:19:25;;;;;;;28.55;15.75;;;;;;;;;;4953317;28;20561;-63
2022/03/20 04:21:52;;;;;;;25.80;17.02;;;;;;;;;;4953642;28;20106;-64
2022/03/20 04:24:18;;;;;;;22.58;15.85;;;;;;;;;;4936844;29;20047;-63
2022/03/20 04:26:46;;;;;;;23.30;15.38;;;;;;;;;;4953728;29;20102;-63
2022/03/20 04:29:12;;;;;;;24.48;16.25;;;;;;;;;;4953380;28;20051;-64
2022/03/20 04:31:40;;;;;;;23.30;15.45;;;;;;;;;;4953421;28;20482;-63
2022/03/20 04:34:07;;;;;;;24.63;16.05;;;;;;;;;;4953460;28;20052;-63
2022/03/20 04:36:34;;;;;;;28.77;17.38;;;;;;;;;;4953475;29;20485;-64
2022/03/20 04:39:01;;;;;;;22.48;14.85;;;;;;;;;;4953303;28;20055;-64
2022/03/20 04:41:28;;;;;;;26.95;17.67;;;;;;;;;;4953449;28;20051;-63
2022/03/20 04:43:54;;;;;;;26.85;17.23;;;;;;;;;;4953584;29;20054;-63
2022/03/20 04:46:21;;;;;;;25.15;16.88;;;;;;;;;;4953438;29;20502;-64
2022/03/20 04:59:48;;;;;;;28.45;17.33;;;;;;;;;;4953267;28;20051;-63
2022/03/20 05:02:15;;;;;;;27.42;17.33;;;;;;;;;;4953215;28;20553;-63
2022/03/20 05:04:42;;;;;;;26.85;17.65;;;;;;;;;;4953160;29;20577;-63
2022/03/20 05:07:09;;;;;;;26.35;16.98;;;;;;;;;;4953285;29;20092;-63
2022/03/20 05:15:08;;;;;;;26.23;18.20;;;;;;;;;;4952132;29;20051;-63
2022/03/20 05:17:36;;;;;;;29.30;17.92;;;;;;;;;;4953278;28;20051;-63
2022/03/20 05:20:03;;;;;;;33.78;19.20;;;;;;;;;;4952938;28;20477;-62
2022/03/20 05:22:34;;;;;;;26.60;16.73;;;;;;;;;;4953207;28;20478;-63
2022/03/20 05:25:01;;;;;;;28.60;17.52;;;;;;;;;;4953283;28;20114;-63
2022/03/20 05:27:27;;;;;;;26.50;17.85;;;;;;;;;;4936359;29;20502;-63
2022/03/20 05:29:54;;;;;;;29.10;17.58;;;;;;;;;;4974330;23;20106;-64
2022/03/20 05:32:21;;;;;;;25.65;18.13;;;;;;;;;;4953832;28;20135;-64
2022/03/20 05:34:47;;;;;;;28.05;18.23;;;;;;;;;;4956889;28;20421;-64
2022/03/20 05:37:14;;;;;;;32.30;18.08;;;;;;;;;;4956661;28;20493;-64
2022/03/20 05:39:40;;;;;;;28.05;19.08;;;;;;;;;;4956483;28;20058;-64
2022/03/20 05:42:07;;;;;;;28.08;18.58;;;;;;;;;;4956532;28;20102;-64
2022/03/20 05:44:34;;;;;;;29.45;19.83;;;;;;;;;;4956329;28;20580;-64
2022/03/20 05:47:01;;;;;;;29.65;19.80;;;;;;;;;;4956497;28;20051;-64
2022/03/20 05:49:28;;;;;;;28.35;18.23;;;;;;;;;;4955927;28;20055;-64
2022/03/20 05:51:55;;;;;;;29.65;19.33;;;;;;;;;;4956513;28;20055;-64
2022/03/20 05:54:22;;;;;;;29.63;19.25;;;;;;;;;;4956486;28;20047;-64
2022/03/20 05:59:36;;;;;;;31.88;19.15;;;;;;;;;;4955839;28;20055;-64
2022/03/20 06:02:04;;;;;;;30.92;18.73;;;;;;;;;;4956257;28;20118;-64
2022/03/20 06:04:31;;;;;;;28.15;18.35;;;;;;;;;;4956209;28;20051;-64
2022/03/20 06:06:58;;;;;;;30.75;18.92;;;;;;;;;;4956395;29;20051;-64
2022/03/20 06:09:25;;;;;;;34.17;19.90;;;;;;;;;;4955937;28;20445;-64
2022/03/20 06:11:51;;;;;;;33.50;19.58;;;;;;;;;;4955951;28;20054;-64
2022/03/20 06:14:18;;;;;;;29.02;18.83;;;;;;;;;;4956252;29;20051;-64
2022/03/20 06:16:48;;;;;;;33.33;19.58;;;;;;;;;;4956438;28;20051;-64
2022/03/20 06:19:15;;;;;;;29.02;18.10;;;;;;;;;;4955955;28;20482;-63
2022/03/20 06:21:43;;;;;;;30.88;19.77;;;;;;;;;;4955926;28;20054;-64
2022/03/20 06:24:09;;;;;;;31.27;20.38;;;;;;;;;;4955817;28;20063;-64
2022/03/20 06:26:36;;;;;;;27.42;17.88;;;;;;;;;;4954520;29;20126;-64
2022/03/20 06:29:06;;;;;;;25.98;18.42;;;;;;;;;;4955472;28;20051;-64
2022/03/20 06:31:33;;;;;;;31.23;19.98;;;;;;;;;;4955321;28;20098;-64
2022/03/20 06:34:01;;;;;;;30.92;19.25;;;;;;;;;;4955284;28;20055;-64
2022/03/20 06:36:27;;;;;;;29.65;19.42;;;;;;;;;;4955528;28;20059;-64
2022/03/20 06:38:55;;;;;;;31.25;19.13;;;;;;;;;;4956426;28;20051;-64
2022/03/20 06:41:21;;;;;;;29.92;21.23;;;;;;;;;;4955116;28;20043;-64
2022/03/20 06:43:48;;;;;;;26.63;18.77;;;;;;;;;;4954279;28;20055;-64
2022/03/20 06:46:15;;;;;;;29.40;19.42;;;;;;;;;;4955364;28;20094;-64
2022/03/20 06:48:57;;;;;;;26.75;18.88;;;;;;;;;;4955109;28;20095;-64
2022/03/20 06:51:23;;;;;;;28.05;19.55;;;;;;;;;;4954919;29;20118;-65
2022/03/20 06:53:53;;;;;;;26.27;17.83;;;;;;;;;;4955329;29;20098;-64
2022/03/20 06:56:20;;;;;;;30.30;19.73;;;;;;;;;;4955187;28;20106;-65
2022/03/20 06:58:46;;;;;;;29.45;19.58;;;;;;;;;;4955225;28;20059;-65
2022/03/20 07:01:13;;;;;;;29.98;19.98;;;;;;;;;;4954563;28;20549;-65
2022/03/20 07:03:40;;;;;;;27.38;18.90;;;;;;;;;;4954958;29;20047;-64
2022/03/20 07:06:07;;;;;;;28.13;18.15;;;;;;;;;;4955251;28;20526;-64
2022/03/20 07:08:33;;;;;;;30.48;19.02;;;;;;;;;;4955038;28;20059;-64
2022/03/20 07:11:00;;;;;;;27.50;18.73;;;;;;;;;;4954654;29;20485;-64
2022/03/20 07:16:15;;;;;;;29.65;18.75;;;;;;;;;;4954791;28;20469;-64
2022/03/20 07:18:42;;;;;;;28.40;18.63;;;;;;;;;;4953258;28;20051;-65
2022/03/20 07:21:09;;;;;;;29.65;19.38;;;;;;;;;;4937650;29;20394;-65
2022/03/20 07:23:37;;;;;;;30.60;19.33;;;;;;;;;;4954796;29;20055;-65
2022/03/20 07:31:33;;;;;;;29.38;19.55;;;;;;;;;;4954155;29;20047;-65
2022/03/20 07:34:00;;;;;;;29.38;19.35;;;;;;;;;;4954683;28;20174;-64
2022/03/20 07:36:28;;;;;;;33.90;19.30;;;;;;;;;;4954554;28;20110;-64
2022/03/20 07:38:55;;;;;;;27.55;17.95;;;;;;;;;;4954282;28;20098;-64
2022/03/20 07:41:21;;;;;;;29.70;19.73;;;;;;;;;;4953990;29;20125;-64
2022/03/20 07:43:49;;;;;;;27.70;18.38;;;;;;;;;;4954286;29;20051;-64
2022/03/20 07:46:15;;;;;;;27.42;18.75;;;;;;;;;;4954542;28;20053;-64
2022/03/20 07:48:42;;;;;;;29.95;19.48;;;;;;;;;;4954240;28;20055;-65
2022/03/20 07:51:09;;;;;;;28.10;18.85;;;;;;;;;;4953987;29;20502;-64
2022/03/20 07:53:36;;;;;;;30.55;19.95;;;;;;;;;;4954663;28;20055;-65
2022/03/20 07:56:03;;;;;;;25.80;18.50;;;;;;;;;;4953959;28;20055;-64
2022/03/20 07:58:29;;;;;;;33.20;20.08;;;;;;;;;;4954078;28;20086;-64
2022/03/20 08:00:56;;;;;;;27.30;18.42;;;;;;;;;;4953871;28;20059;-64
2022/03/20 08:03:23;;;;;;;27.65;18.60;;;;;;;;;;4954001;29;20074;-64
2022/03/20 08:05:50;;;;;;;25.85;17.70;;;;;;;;;;4953900;29;20082;-65
2022/03/20 08:08:17;;;;;;;28.02;18.15;;;;;;;;;;4953934;28;20055;-65
2022/03/20 08:10:44;;;;;;;25.80;18.27;;;;;;;;;;4953674;29;20058;-64
2022/03/20 08:13:11;;;;;;;27.95;19.90;;;;;;;;;;4953963;28;20051;-64
2022/03/20 08:15:39;;;;;;;32.05;18.55;;;;;;;;;;4953920;28;20481;-64
2022/03/20 08:18:07;;;;;;;29.63;18.30;;;;;;;;;;4953879;28;20059;-65
2022/03/20 08:20:35;;;;;;;28.08;18.98;;;;;;;;;;4953523;28;20062;-65
2022/03/20 08:23:05;;;;;;;28.30;19.80;;;;;;;;;;4953822;28;20391;-65
2022/03/20 08:25:31;;;;;;;27.73;18.25;;;;;;;;;;4953556;29;20055;-65
2022/03/20 08:27:58;;;;;;;28.73;17.33;;;;;;;;;;4953875;28;20106;-65
2022/03/20 08:30:25;;;;;;;27.30;18.23;;;;;;;;;;4953376;28;20086;-64
2022/03/20 08:32:52;;;;;;;25.10;17.80;;;;;;;;;;4953781;28;20047;-64
2022/03/20 08:35:19;;;;;;;27.77;18.35;;;;;;;;;;4954162;28;20110;-65
2022/03/20 08:37:47;;;;;;;27.48;18.92;;;;;;;;;;4953549;28;20517;-65
2022/03/20 08:40:16;;;;;;;31.80;20.33;;;;;;;;;;4952147;28;20059;-65
2022/03/20 08:42:44;;;;;;;27.75;18.85;;;;;;;;;;4953579;28;20079;-64
2022/03/20 08:45:12;;;;;;;26.23;18.75;;;;;;;;;;4953560;29;20055;-65
2022/03/20 08:47:44;;;;;;;29.07;18.30;;;;;;;;;;4953740;28;20047;-64
2022/03/20 08:50:12;;;;;;;29.85;19.23;;;;;;;;;;4953062;28;20501;-65
2022/03/20 08:52:39;;;;;;;27.23;19.25;;;;;;;;;;4953713;28;20398;-66
2022/03/20 08:55:10;;;;;;;27.67;17.27;;;;;;;;;;4953313;28;20490;-64
2022/03/20 08:57:42;;;;;;;28.08;18.42;;;;;;;;;;4953546;28;20057;-64
2022/03/20 09:00:10;;;;;;;28.23;18.35;;;;;;;;;;4953254;28;20462;-64
2022/03/20 09:02:36;;;;;;;29.90;18.65;;;;;;;;;;4953221;28;20106;-64
2022/03/20 09:05:05;;;;;;;24.80;17.13;;;;;;;;;;4953297;28;20126;-64
2022/03/20 09:07:31;;;;;;;26.75;18.33;;;;;;;;;;4954700;28;20107;-64
2022/03/20 09:09:58;;;;;;;26.55;18.05;;;;;;;;;;4956907;28;20109;-64
2022/03/20 09:12:25;;;;;;;27.15;18.70;;;;;;;;;;4956909;29;20074;-64
2022/03/20 09:14:51;;;;;;;27.00;18.75;;;;;;;;;;4957147;29;20047;-64
2022/03/20 09:20:03;;;;;;;28.48;18.05;;;;;;;;;;4956584;28;20047;-64
2022/03/20 09:22:30;;;;;;;27.83;18.38;;;;;;;;;;4956775;28;20055;-64
2022/03/20 09:24:56;;;;;;;24.23;17.33;;;;;;;;;;4956767;28;20502;-64
2022/03/20 09:27:23;;;;;;;25.80;17.80;;;;;;;;;;4956727;29;20055;-64
2022/03/20 09:29:50;;;;;;;26.98;17.65;;;;;;;;;;4956372;28;20336;-64
2022/03/20 09:32:17;;;;;;;23.05;16.70;;;;;;;;;;4956865;28;20047;-64
2022/03/20 09:34:44;;;;;;;27.33;17.23;;;;;;;;;;4956893;28;20482;-64
2022/03/20 09:37:11;;;;;;;26.05;18.75;;;;;;;;;;4956945;28;20083;-64
2022/03/20 09:39:37;;;;;;;26.08;18.92;;;;;;;;;;4956453;28;20055;-64
2022/03/20 09:42:06;;;;;;;25.05;17.95;;;;;;;;;;4956304;28;20047;-64
2022/03/20 09:44:34;;;;;;;23.95;17.33;;;;;;;;;;4955141;29;20051;-64
2022/03/20 09:47:01;;;;;;;23.80;16.88;;;;;;;;;;4956608;28;20114;-64
2022/03/20 09:49:28;;;;;;;25.65;17.92;;;;;;;;;;4956317;28;20510;-64
2022/03/20 09:51:54;;;;;;;27.08;18.77;;;;;;;;;;4955085;29;20106;-64
2022/03/20 09:54:21;;;;;;;24.17;17.90;;;;;;;;;;4956160;29;20056;-65
2022/03/20 09:56:54;;;;;;;24.35;17.88;;;;;;;;;;4956079;29;20066;-65
2022/03/20 09:59:20;;;;;;;;;;;;;;;;;;4956918;28;20051;-64
2022/03/20 10:01:47;;;;;;;25.10;16.90;;;;;;;;;;4956054;28;20377;-65
2022/03/20 10:04:15;;;;;;;23.63;17.20;;;;;;;;;;4956314;28;20051;-65
2022/03/20 10:06:42;;;;;;;24.95;16.65;;;;;;;;;;4956084;28;20058;-65
2022/03/20 10:09:10;;;;;;;24.75;17.80;;;;;;;;;;4955844;28;20106;-64
2022/03/20 10:11:57;;;;;;;24.13;17.42;;;;;;;;;;4955530;28;20122;-65
2022/03/20 10:14:32;;;;;;;24.23;17.85;;;;;;;;;;4956072;28;20051;-64
2022/03/20 10:17:17;;;;;;;26.42;17.92;;;;;;;;;;4956158;28;20102;-64
2022/03/20 10:19:44;;;;;;;25.95;18.65;;;;;;;;;;4955434;28;20060;-64
2022/03/20 10:22:13;;;;;;;25.52;16.83;;;;;;;;;;4955602;29;20064;-64
2022/03/20 10:24:50;;;;;;;23.55;17.38;;;;;;;;;;4954613;29;20051;-64
2022/03/20 10:27:17;;;;;;;25.55;16.83;;;;;;;;;;4954494;29;20055;-64
2022/03/20 10:29:55;;;;;;;28.42;18.48;;;;;;;;;;4956076;28;20052;-64
2022/03/20 10:32:22;;;;;;;24.40;16.50;;;;;;;;;;4955350;28;20095;-64
2022/03/20 10:35:00;;;;;;;26.65;18.30;;;;;;;;;;4955805;28;20055;-64
2022/03/20 10:38:02;;;;;;;26.17;18.55;;;;;;;;;;4954265;29;20047;-64
2022/03/20 10:40:29;;;;;;;23.67;16.95;;;;;;;;;;4914563;29;20507;-64
2022/03/20 10:43:15;;;;;;;24.52;16.70;;;;;;;;;;4942629;29;20086;-64
2022/03/20 10:45:50;;;;;;;27.08;17.63;;;;;;;;;;4955550;28;20055;-64
2022/03/20 10:48:22;;;;;;;25.90;17.98;;;;;;;;;;4955173;28;20055;-64
2022/03/20 10:50:49;;;;;;;27.88;18.33;;;;;;;;;;4938526;29;20426;-65
2022/03/20 10:53:15;;;;;;;25.45;19.15;;;;;;;;;;4953828;29;20742;-64
2022/03/20 10:55:42;;;;;;;27.70;17.80;;;;;;;;;;4955294;28;20133;-64
2022/03/20 10:58:26;;;;;;;26.65;18.08;;;;;;;;;;4953640;28;20086;-64
2022/03/20 11:00:53;;;;;;;22.60;16.33;;;;;;;;;;4955022;28;20051;-64
2022/03/20 11:03:22;;;;;;;24.02;17.30;;;;;;;;;;4954725;28;20058;-65
2022/03/20 11:05:52;;;;;;;24.77;17.45;;;;;;;;;;4953812;29;20098;-65
2022/03/20 11:08:19;;;;;;;26.33;17.92;;;;;;;;;;4955033;28;20099;-64
2022/03/20 11:10:48;;;;;;;24.35;16.63;;;;;;;;;;4954772;28;20059;-65
2022/03/20 11:13:15;;;;;;;25.98;17.95;;;;;;;;;;4954657;28;20466;-64
2022/03/20 11:15:45;;;;;;;26.55;18.08;;;;;;;;;;4955555;29;20569;-64
2022/03/20 11:18:14;;;;;;;24.77;17.17;;;;;;;;;;4954527;28;20047;-64
2022/03/20 11:20:46;;;;;;;25.63;17.67;;;;;;;;;;4954403;28;20055;-64
2022/03/20 11:23:14;;;;;;;22.15;16.77;;;;;;;;;;4953355;29;20047;-64
2022/03/20 11:25:45;;;;;;;25.00;17.08;;;;;;;;;;4954489;28;20484;-64
2022/03/20 11:28:13;;;;;;;23.42;17.02;;;;;;;;;;4957116;28;20072;-64
2022/03/20 11:30:41;;;;;;;22.40;16.38;;;;;;;;;;4973809;23;20051;-62
2022/03/20 11:33:09;;;;;;;23.48;17.48;;;;;;;;;;4953083;29;20063;-62
2022/03/20 11:35:37;;;;;;;23.63;16.58;;;;;;;;;;4953484;29;20084;-62
2022/03/20 11:38:20;;;;;;;22.40;16.23;;;;;;;;;;4954844;28;20512;-62
2022/03/20 11:41:07;;;;;;;21.90;15.15;;;;;;;;;;4953995;28;20493;-62
2022/03/20 11:44:06;;;;;;;20.88;14.30;;;;;;;;;;4954412;28;20192;-62
2022/03/20 11:46:34;;;;;;;22.92;16.88;;;;;;;;;;4954305;28;20055;-62
2022/03/20 11:49:20;;;;;;;24.15;16.40;;;;;;;;;;4954118;28;20074;-62
2022/03/20 11:52:03;;;;;;;26.45;17.17;;;;;;;;;;4954447;28;20055;-62
2022/03/20 11:54:42;;;;;;;23.08;16.48;;;;;;;;;;4954181;28;20453;-62
2022/03/20 11:57:38;;;;;;;22.02;15.52;;;;;;;;;;4954092;28;20055;-62
2022/03/20 12:00:10;;;;;;;20.58;14.80;;;;;;;;;;4945683;28;20106;-62
2022/03/20 12:03:10;;;;;;;25.77;14.68;;;;;;;;;;4954679;28;20051;-63
2022/03/20 12:06:08;;;;;;;20.77;13.75;;;;;;;;;;4955188;28;20509;-63
2022/03/20 12:08:59;;;;;;;22.00;15.23;;;;;;;;;;4953792;28;20465;-62
2022/03/20 12:11:47;;;;;;;24.73;14.10;;;;;;;;;;4955011;29;20051;-64
2022/03/20 12:14:37;;;;;;;24.65;14.43;;;;;;;;;;4952887;29;20130;-62
2022/03/20 12:17:04;;;;;;;21.20;13.77;;;;;;;;;;4954211;28;20055;-63
2022/03/20 12:19:38;;;;;;;17.48;13.40;;;;;;;;;;4954160;28;20051;-63
2022/03/20 12:22:06;;;;;;;22.60;13.88;;;;;;;;;;4954338;28;20055;-62
2022/03/20 12:24:35;;;;;;;21.77;11.63;;;;;;;;;;4953655;28;20564;-63
2022/03/20 12:27:23;;;;;;;21.77;11.52;;;;;;;;;;4953688;28;20106;-62
2022/03/20 12:30:05;;;;;;;19.48;11.45;;;;;;;;;;4953204;28;20532;-63
2022/03/20 12:32:46;;;;;;;18.05;11.75;;;;;;;;;;4953702;29;20095;-63
2022/03/20 12:35:26;;;;;;;18.33;11.50;;;;;;;;;;4953518;29;20058;-62
2022/03/20 12:37:57;;;;;;;18.45;12.00;;;;;;;;;;4953845;29;20099;-62
2022/03/20 12:40:25;;;;;;;19.30;12.45;;;;;;;;;;4953562;28;20063;-63
2022/03/20 12:43:14;;;;;;;18.00;10.50;;;;;;;;;;4957348;29;20490;-64
2022/03/20 12:45:46;;;;;;;17.98;12.82;;;;;;;;;;4957421;28;20062;-63
2022/03/20 12:48:17;;;;;;;19.10;11.75;;;;;;;;;;4957601;28;20148;-63
2022/03/20 12:50:46;;;;;;;17.92;12.02;;;;;;;;;;4957395;28;20055;-63
2022/03/20 12:53:15;;;;;;;19.00;12.57;;;;;;;;;;4957383;28;20048;-62
2022/03/20 12:55:55;;;;;;;18.73;12.63;;;;;;;;;;4957200;28;20050;-62
2022/03/20 12:58:22;;;;;;;18.92;12.25;;;;;;;;;;4957725;28;20102;-63
2022/03/20 13:00:49;;;;;;;19.85;12.40;;;;;;;;;;4956978;28;20055;-63
2022/03/20 13:03:17;;;;;;;18.65;12.25;;;;;;;;;;4956052;29;20418;-62
2022/03/20 13:05:48;;;;;;;18.38;11.98;;;;;;;;;;4957045;28;20062;-63
2022/03/20 13:08:22;;;;;;;24.48;13.13;;;;;;;;;;4957038;28;20102;-63
2022/03/20 13:10:50;;;;;;;18.10;11.75;;;;;;;;;;4956553;28;20082;-63
2022/03/20 13:13:20;;;;;;;16.40;11.13;;;;;;;;;;4956966;28;20102;-62
2022/03/20 13:15:48;;;;;;;18.33;12.35;;;;;;;;;;4957143;28;20232;-62
2022/03/20 13:18:15;;;;;;;17.65;11.07;;;;;;;;;;4956806;28;20561;-62
2022/03/20 13:20:45;;;;;;;14.77;11.35;;;;;;;;;;4956753;28;20448;-63
2022/03/20 13:23:14;;;;;;;17.25;11.35;;;;;;;;;;4956570;28;20043;-64
2022/03/20 13:26:08;;;;;;;13.55;11.27;;;;;;;;;;4957029;28;20391;-64
2022/03/20 13:28:40;;;;;;;13.63;10.57;;;;;;;;;;4956461;28;20055;-63
2022/03/20 13:31:21;;;;;;;13.68;10.45;;;;;;;;;;4956600;28;20051;-63
2022/03/20 13:33:52;;;;;;;17.52;12.00;;;;;;;;;;4956464;28;20078;-64
2022/03/20 13:36:23;;;;;;;14.73;11.95;;;;;;;;;;4956627;28;20134;-63
2022/03/20 13:38:52;;;;;;;15.68;11.57;;;;;;;;;;4956384;28;20059;-64
2022/03/20 13:41:21;;;;;;;13.63;11.00;;;;;;;;;;4956377;28;20086;-63
2022/03/20 13:43:49;;;;;;;14.50;11.23;;;;;;;;;;4956288;28;20047;-64
2022/03/20 13:46:20;;;;;;;14.45;12.15;;;;;;;;;;4955311;29;20051;-64
2022/03/20 13:48:48;;;;;;;16.23;11.52;;;;;;;;;;4956374;28;20107;-63
2022/03/20 13:51:17;;;;;;;15.70;12.02;;;;;;;;;;4955187;29;20055;-63
2022/03/20 13:53:44;;;;;;;16.35;11.90;;;;;;;;;;4954495;28;20043;-64
2022/03/20 13:56:26;;;;;;;15.68;12.35;;;;;;;;;;4956241;29;20051;-64
2022/03/20 13:59:07;;;;;;;15.80;11.20;;;;;;;;;;4956202;28;20090;-64
2022/03/20 14:01:49;;;;;;;18.55;12.13;;;;;;;;;;4956042;28;20361;-64
2022/03/20 14:04:18;;;;;;;13.98;11.70;;;;;;;;;;4956008;28;20058;-64
2022/03/20 14:07:00;;;;;;;22.60;12.90;;;;;;;;;;4955948;28;20110;-63
2022/03/20 14:09:34;;;;;;;15.43;11.23;;;;;;;;;;4955646;28;20058;-64
2022/03/20 14:12:29;;;;;;;16.83;11.23;;;;;;;;;;4955905;29;20059;-63
2022/03/20 14:14:58;;;;;;;15.50;13.02;;;;;;;;;;4955837;28;20095;-64
2022/03/20 14:17:50;;;;;;;17.42;12.82;;;;;;;;;;4955726;28;20114;-63
2022/03/20 14:20:27;;;;;;;16.90;13.52;;;;;;;;;;4955639;28;20047;-63
2022/03/20 14:22:57;;;;;;;21.73;14.18;;;;;;;;;;4955659;28;20047;-64
2022/03/20 14:25:39;;;;;;;14.65;11.48;;;;;;;;;;4955707;28;20047;-64
2022/03/20 14:28:16;;;;;;;13.93;12.05;;;;;;;;;;4956128;28;20047;-63
2022/03/20 14:39:26;;;;;;;17.80;12.63;;;;;;;;;;4954332;28;20055;-63
2022/03/20 14:41:53;;;;;;;17.08;13.43;;;;;;;;;;4955345;28;20055;-64
2022/03/20 14:44:26;;;;;;;17.35;13.23;;;;;;;;;;4955023;28;20047;-64
2022/03/20 14:47:02;;;;;;;17.35;13.55;;;;;;;;;;4955533;28;20059;-63
2022/03/20 14:49:30;;;;;;;17.08;12.77;;;;;;;;;;4955190;28;20059;-63
2022/03/20 14:51:56;;;;;;;17.65;12.20;;;;;;;;;;4955195;28;20055;-63
2022/03/20 14:54:24;;;;;;;20.80;14.20;;;;;;;;;;4954977;28;20048;-63
2022/03/20 14:56:51;;;;;;;17.65;13.15;;;;;;;;;;4953918;29;20051;-63
2022/03/20 14:59:18;;;;;;;18.58;12.98;;;;;;;;;;4954515;28;20047;-63
2022/03/20 15:01:45;;;;;;;19.50;13.77;;;;;;;;;;4955105;29;20090;-64
2022/03/20 15:04:13;;;;;;;16.70;12.88;;;;;;;;;;4954468;28;20047;-63
2022/03/20 15:06:46;;;;;;;14.70;12.25;;;;;;;;;;4955051;28;20458;-63
2022/03/20 15:12:00;;;;;;;16.27;12.50;;;;;;;;;;4955068;28;20469;-63
2022/03/20 15:14:27;;;;;;;15.70;12.55;;;;;;;;;;4954840;28;20047;-64
2022/03/20 15:16:53;;;;;;;17.17;13.18;;;;;;;;;;4954824;28;20421;-63
2022/03/20 15:19:20;;;;;;;20.13;13.98;;;;;;;;;;4954563;28;20425;-64
2022/03/20 15:21:47;;;;;;;15.98;12.07;;;;;;;;;;4954576;28;20553;-63